createdAt,value
2023-03-06T00:00:27.437Z,-3.00
2023-03-06T00:02:55.608Z,-4.30
2023-03-06T00:05:24.195Z,-4.30
2023-03-06T00:07:52.383Z,-4.20
2023-03-06T00:10:24.451Z,-4.30
2023-03-06T00:12:53.740Z,-4.30
2023-03-06T00:15:21.942Z,-3.20
2023-03-06T00:17:50.216Z,-4.30
2023-03-06T00:20:19.290Z,-4.30
2023-03-06T00:22:48.015Z,-4.30
2023-03-06T00:25:18.049Z,-4.10
2023-03-06T00:27:47.696Z,-4.30
2023-03-06T00:30:18.085Z,-3.10
2023-03-06T00:32:46.364Z,-4.30
2023-03-06T00:35:15.093Z,-4.40
2023-03-06T00:37:43.704Z,-4.40
2023-03-06T00:40:15.085Z,-4.40
2023-03-06T00:42:43.570Z,-4.30
2023-03-06T00:45:14.042Z,-4.10
2023-03-06T00:47:42.765Z,-4.20
2023-03-06T00:50:12.102Z,-4.00
2023-03-06T00:52:41.992Z,-4.40
2023-03-06T00:55:11.449Z,-4.40
2023-03-06T00:57:39.681Z,-4.50
2023-03-06T01:00:09.602Z,-4.50
2023-03-06T01:02:39.289Z,-4.50
2023-03-06T01:05:08.844Z,-4.50
2023-03-06T01:07:37.436Z,-4.50
2023-03-06T01:10:07.896Z,-3.80
2023-03-06T01:12:36.329Z,-4.60
2023-03-06T01:15:05.708Z,-4.30
2023-03-06T01:17:33.862Z,-4.60
2023-03-06T01:20:03.477Z,-4.50
2023-03-06T01:22:31.702Z,-4.60
2023-03-06T01:24:59.843Z,-4.00
2023-03-06T01:27:28.034Z,-4.60
2023-03-06T01:29:56.372Z,-4.60
2023-03-06T01:32:24.590Z,-4.60
2023-03-06T01:34:52.758Z,-4.70
2023-03-06T01:37:22.316Z,-4.70
2023-03-06T01:39:50.694Z,-3.70
2023-03-06T01:42:18.847Z,-4.70
2023-03-06T01:45:05.095Z,-4.70
2023-03-06T01:47:33.332Z,-4.70
2023-03-06T01:50:03.840Z,-4.70
2023-03-06T01:52:37.212Z,-4.60
2023-03-06T01:55:09.218Z,-4.70
2023-03-06T01:57:43.762Z,-4.60
2023-03-06T02:00:15.226Z,-3.70
2023-03-06T02:02:45.429Z,-4.70
2023-03-06T02:05:13.580Z,-4.70
2023-03-06T02:07:45.362Z,-4.70
2023-03-06T02:10:14.145Z,-4.70
2023-03-06T02:12:43.921Z,-4.20
2023-03-06T02:15:13.316Z,-4.00
2023-03-06T02:17:44.018Z,-4.60
2023-03-06T02:20:16.249Z,-4.60
2023-03-06T02:22:51.142Z,-4.60
2023-03-06T02:25:39.536Z,-3.70
2023-03-06T02:28:09.448Z,-4.00
2023-03-06T02:30:38.640Z,-4.60
2023-03-06T02:33:07.914Z,-4.70
2023-03-06T02:35:37.355Z,-4.20
2023-03-06T02:38:10.300Z,-4.10
2023-03-06T02:40:39.948Z,-4.60
2023-03-06T02:43:08.683Z,-4.60
2023-03-06T02:45:39.808Z,-4.70
2023-03-06T02:48:08.487Z,-4.70
2023-03-06T02:50:36.683Z,-4.60
2023-03-06T02:53:05.054Z,-4.70
2023-03-06T02:55:33.246Z,-4.60
2023-03-06T02:58:03.410Z,-4.40
2023-03-06T03:00:32.543Z,-4.70
2023-03-06T03:03:01.084Z,-4.60
2023-03-06T03:05:29.302Z,-4.10
2023-03-06T03:07:57.466Z,-4.40
2023-03-06T03:10:26.079Z,-4.70
2023-03-06T03:12:54.217Z,-4.60
2023-03-06T03:15:23.774Z,-4.60
2023-03-06T03:17:52.042Z,-4.60
2023-03-06T03:20:22.093Z,-4.20
2023-03-06T03:22:50.789Z,-4.60
2023-03-06T03:25:19.526Z,-4.70
2023-03-06T03:27:47.730Z,-4.60
2023-03-06T03:30:16.956Z,-4.60
2023-03-06T03:32:46.461Z,-4.70
2023-03-06T03:35:14.968Z,-4.60
2023-03-06T03:37:43.178Z,-4.60
2023-03-06T03:40:12.410Z,-3.40
2023-03-06T03:42:40.545Z,-4.60
2023-03-06T03:45:09.587Z,-4.60
2023-03-06T03:47:37.777Z,-4.70
2023-03-06T03:50:08.564Z,-4.20
2023-03-06T03:52:36.718Z,-4.70
2023-03-06T03:55:05.414Z,-4.70
2023-03-06T03:57:33.625Z,-5.00
2023-03-06T04:00:01.742Z,-4.80
2023-03-06T04:02:29.884Z,-4.50
2023-03-06T04:04:58.138Z,-4.70
2023-03-06T04:07:27.697Z,-4.70
2023-03-06T04:09:55.949Z,-4.10
2023-03-06T04:12:24.092Z,-4.80
2023-03-06T04:14:52.304Z,-4.80
2023-03-06T04:17:20.488Z,-4.70
2023-03-06T04:19:48.612Z,-4.10
2023-03-06T04:22:16.796Z,-4.90
2023-03-06T04:24:48.887Z,-4.90
2023-03-06T04:27:17.144Z,-4.80
2023-03-06T04:29:45.324Z,-4.90
2023-03-06T04:32:13.514Z,-4.80
2023-03-06T04:34:41.680Z,-4.90
2023-03-06T04:37:12.851Z,-4.90
2023-03-06T04:39:41.001Z,-4.80
2023-03-06T04:42:10.638Z,-4.50
2023-03-06T04:44:38.754Z,-4.90
2023-03-06T04:47:07.461Z,-5.00
2023-03-06T04:49:35.927Z,-5.00
2023-03-06T04:52:04.740Z,-5.00
2023-03-06T04:54:33.057Z,-5.00
2023-03-06T04:57:01.260Z,-5.00
2023-03-06T04:59:30.857Z,-5.00
2023-03-06T05:01:59.000Z,-5.10
2023-03-06T05:04:27.219Z,-5.10
2023-03-06T05:06:55.345Z,-5.10
2023-03-06T05:09:25.411Z,-5.20
2023-03-06T05:11:53.602Z,-5.20
2023-03-06T05:14:21.783Z,-4.30
2023-03-06T05:16:51.379Z,-5.10
2023-03-06T05:19:19.554Z,-5.20
2023-03-06T05:21:47.688Z,-4.60
2023-03-06T05:24:15.836Z,-5.20
2023-03-06T05:26:43.978Z,-5.20
2023-03-06T05:29:12.129Z,-5.10
2023-03-06T05:31:40.332Z,-5.10
2023-03-06T05:34:14.006Z,-5.10
2023-03-06T05:36:42.166Z,-5.10
2023-03-06T05:39:10.994Z,-5.20
2023-03-06T05:41:39.116Z,-5.20
2023-03-06T05:44:07.206Z,-4.90
2023-03-06T05:46:35.339Z,-5.20
2023-03-06T05:49:03.489Z,-5.20
2023-03-06T05:51:33.013Z,-5.10
2023-03-06T05:54:01.131Z,-5.10
2023-03-06T05:56:29.268Z,-5.10
2023-03-06T05:58:57.385Z,-5.10
2023-03-06T06:01:26.025Z,-5.10
2023-03-06T06:03:54.235Z,-4.00
2023-03-06T06:06:22.434Z,-5.10
2023-03-06T06:08:51.991Z,-4.50
2023-03-06T06:11:20.876Z,-5.00
2023-03-06T06:13:50.031Z,-5.00
2023-03-06T06:16:19.186Z,-3.90
2023-03-06T06:18:47.672Z,-4.90
2023-03-06T06:21:16.051Z,-4.90
2023-03-06T06:23:44.359Z,-3.80
2023-03-06T06:26:13.934Z,-4.70
2023-03-06T06:28:42.089Z,-4.80
2023-03-06T06:31:12.261Z,-4.70
2023-03-06T06:33:40.896Z,-4.70
2023-03-06T06:36:17.169Z,-4.70
2023-03-06T06:38:45.745Z,-4.60
2023-03-06T06:44:08.469Z,-4.50
2023-03-06T06:47:20.883Z,-4.40
2023-03-06T06:49:25.598Z,-4.30
2023-03-06T06:51:53.745Z,-4.20
2023-03-06T06:54:22.401Z,-4.10
2023-03-06T06:56:52.111Z,-4.10
2023-03-06T06:59:20.402Z,-4.00
2023-03-06T07:01:48.711Z,-4.00
2023-03-06T07:04:18.071Z,-3.90
2023-03-06T07:06:47.858Z,-3.90
2023-03-06T07:09:16.257Z,-3.80
2023-03-06T07:11:44.431Z,-3.70
2023-03-06T07:14:13.944Z,-3.60
2023-03-06T07:16:42.125Z,-3.50
2023-03-06T07:19:10.261Z,-3.50
2023-03-06T07:21:38.376Z,-3.40
2023-03-06T07:24:06.861Z,-3.40
2023-03-06T07:26:35.136Z,-3.30
2023-03-06T07:29:03.638Z,-3.10
2023-03-06T07:31:33.481Z,-3.00
2023-03-06T07:34:04.511Z,-2.90
2023-03-06T07:36:33.906Z,-2.80
2023-03-06T07:39:02.401Z,-2.70
2023-03-06T07:41:30.571Z,-2.60
2023-03-06T07:43:58.674Z,-2.40
2023-03-06T07:46:26.886Z,-2.40
2023-03-06T07:48:56.428Z,-2.20
2023-03-06T07:51:24.548Z,-2.00
2023-03-06T07:53:52.715Z,-1.80
2023-03-06T07:56:21.000Z,-1.70
2023-03-06T07:58:49.779Z,-1.80
2023-03-06T08:01:19.777Z,-1.80
2023-03-06T08:03:50.072Z,-1.60
2023-03-06T08:06:23.014Z,-1.60
2023-03-06T08:08:52.691Z,-1.50
2023-03-06T08:11:22.752Z,-1.50
2023-03-06T08:13:52.732Z,-1.40
2023-03-06T08:16:22.186Z,-1.30
2023-03-06T08:18:50.392Z,-1.20
2023-03-06T08:21:21.949Z,-1.10
2023-03-06T08:23:50.586Z,-1.00
2023-03-06T08:26:20.925Z,-0.90
2023-03-06T08:28:49.553Z,-0.80
2023-03-06T08:31:26.678Z,-0.70
2023-03-06T08:33:55.507Z,-0.80
2023-03-06T08:36:25.245Z,-0.70
2023-03-06T08:38:53.797Z,0.00
2023-03-06T08:41:22.514Z,-0.60
2023-03-06T08:43:51.416Z,-0.50
2023-03-06T08:46:20.013Z,-0.30
2023-03-06T08:48:48.397Z,0.00
2023-03-06T08:51:17.258Z,-0.10
2023-03-06T08:53:47.581Z,-0.20
2023-03-06T08:56:19.782Z,-0.20
2023-03-06T08:58:48.463Z,0.10
2023-03-06T09:01:18.171Z,0.20
2023-03-06T09:03:46.410Z,0.40
2023-03-06T09:06:16.724Z,0.40
2023-03-06T09:08:49.790Z,0.50
2023-03-06T09:11:22.616Z,0.60
2023-03-06T09:13:51.103Z,0.40
2023-03-06T09:16:19.565Z,0.40
2023-03-06T09:18:49.879Z,0.70
2023-03-06T09:21:18.171Z,0.70
2023-03-06T09:23:47.683Z,0.60
2023-03-06T09:26:15.866Z,0.80
2023-03-06T09:28:44.199Z,0.90
2023-03-06T09:31:14.073Z,0.90
2023-03-06T09:33:42.305Z,0.80
2023-03-06T09:36:15.615Z,0.80
2023-03-06T09:38:43.819Z,0.90
2023-03-06T09:41:26.345Z,1.00
2023-03-06T09:43:57.235Z,0.90
2023-03-06T09:46:31.164Z,1.00
2023-03-06T09:49:12.887Z,1.10
2023-03-06T09:51:52.887Z,1.10
2023-03-06T09:54:26.218Z,0.90
2023-03-06T09:56:55.718Z,0.80
2023-03-06T09:59:26.241Z,0.80
2023-03-06T10:02:01.855Z,0.80
2023-03-06T10:04:37.305Z,0.80
2023-03-06T10:07:14.248Z,0.90
2023-03-06T10:09:47.527Z,0.90
2023-03-06T10:12:24.947Z,0.80
2023-03-06T10:15:11.748Z,0.70
2023-03-06T10:17:42.205Z,0.60
2023-03-06T10:20:34.866Z,0.70
2023-03-06T10:23:26.782Z,0.90
2023-03-06T10:26:02.349Z,1.10
2023-03-06T10:28:37.196Z,1.10
2023-03-06T10:31:13.605Z,1.00
2023-03-06T10:33:53.993Z,0.90
2023-03-06T10:36:27.021Z,1.00
2023-03-06T10:38:57.341Z,1.00
2023-03-06T10:41:28.658Z,0.90
2023-03-06T10:44:23.481Z,1.00
2023-03-06T10:46:53.616Z,0.80
2023-03-06T10:49:34.552Z,1.00
2023-03-06T10:52:06.848Z,0.80
2023-03-06T10:54:36.747Z,1.00
2023-03-06T10:57:25.815Z,0.90
2023-03-06T10:59:57.706Z,0.90
2023-03-06T11:02:29.075Z,1.00
2023-03-06T11:04:59.321Z,1.00
2023-03-06T11:07:29.107Z,1.10
2023-03-06T11:10:13.680Z,1.20
2023-03-06T11:12:43.363Z,1.10
2023-03-06T11:15:22.355Z,1.10
2023-03-06T11:17:53.304Z,1.20
2023-03-06T11:20:23.380Z,1.30
2023-03-06T11:22:56.161Z,1.10
2023-03-06T11:25:29.220Z,1.10
2023-03-06T11:28:01.454Z,0.80
2023-03-06T11:30:40.358Z,1.20
2023-03-06T11:33:20.876Z,1.00
2023-03-06T11:35:55.381Z,0.90
2023-03-06T11:38:34.486Z,0.80
2023-03-06T11:41:08.456Z,0.70
2023-03-06T11:43:47.834Z,0.70
2023-03-06T11:46:22.828Z,0.70
2023-03-06T11:48:54.522Z,0.70
2023-03-06T11:51:26.843Z,0.70
2023-03-06T11:53:56.114Z,0.90
2023-03-06T11:56:44.600Z,1.00
2023-03-06T11:59:39.250Z,1.00
2023-03-06T12:02:22.764Z,0.90
2023-03-06T12:05:02.242Z,0.80
2023-03-06T12:07:34.035Z,0.80
2023-03-06T12:10:14.381Z,0.90
2023-03-06T12:13:04.019Z,0.90
2023-03-06T12:16:01.239Z,0.90
2023-03-06T12:18:42.011Z,0.80
2023-03-06T12:21:17.889Z,0.80
2023-03-06T12:23:59.761Z,0.70
2023-03-06T12:26:52.411Z,0.60
2023-03-06T12:29:42.662Z,0.60
2023-03-06T12:32:31.413Z,0.60
2023-03-06T12:35:23.668Z,0.60
2023-03-06T12:38:03.575Z,0.60
2023-03-06T12:41:08.170Z,0.60
2023-03-06T12:44:11.882Z,0.40
2023-03-06T12:46:46.354Z,0.40
2023-03-06T12:49:31.870Z,0.30
2023-03-06T12:52:03.355Z,0.20
2023-03-06T12:54:36.927Z,0.30
2023-03-06T12:57:10.729Z,0.20
2023-03-06T12:59:44.630Z,0.20
2023-03-06T13:03:03.548Z,0.30
2023-03-06T13:06:16.471Z,0.30
2023-03-06T13:09:20.976Z,0.10
2023-03-06T13:12:16.507Z,0.00
2023-03-06T13:14:59.123Z,0.00
2023-03-06T13:17:45.401Z,0.00
2023-03-06T13:20:40.667Z,0.00
2023-03-06T13:24:01.025Z,-0.10
2023-03-06T13:26:59.557Z,0.00
2023-03-06T13:30:18.930Z,0.00
2023-03-06T13:32:47.229Z,0.00
2023-03-06T13:35:48.533Z,0.10
2023-03-06T13:38:38.745Z,0.10
2023-03-06T13:41:27.757Z,0.00
2023-03-06T13:43:58.776Z,0.00
2023-03-06T13:46:31.017Z,-0.10
2023-03-06T13:49:07.137Z,0.00
2023-03-06T13:51:37.685Z,0.00
2023-03-06T13:54:25.616Z,0.10
2023-03-06T13:57:19.948Z,0.10
2023-03-06T14:00:29.765Z,0.10
2023-03-06T14:03:28.381Z,0.30
2023-03-06T14:05:56.617Z,0.40
2023-03-06T14:08:26.470Z,0.40
2023-03-06T14:11:02.505Z,0.40
2023-03-06T14:13:45.533Z,0.40
2023-03-06T14:16:20.513Z,0.30
2023-03-06T14:18:51.810Z,0.20
2023-03-06T14:21:27.547Z,0.20
2023-03-06T14:24:00.943Z,0.20
2023-03-06T14:26:32.909Z,0.20
2023-03-06T14:29:02.921Z,0.20
2023-03-06T14:31:34.321Z,0.10
2023-03-06T14:34:07.624Z,0.10
2023-03-06T14:36:37.957Z,0.10
2023-03-06T14:39:13.133Z,0.20
2023-03-06T14:41:42.631Z,0.10
2023-03-06T14:44:17.759Z,0.20
2023-03-06T14:46:46.824Z,0.20
2023-03-06T14:49:18.187Z,0.20
2023-03-06T14:51:48.000Z,0.20
2023-03-06T14:54:19.584Z,0.20
2023-03-06T14:56:51.385Z,0.10
2023-03-06T14:59:25.118Z,0.20
2023-03-06T15:01:57.870Z,0.30
2023-03-06T15:04:33.120Z,0.30
2023-03-06T15:07:01.488Z,0.30
2023-03-06T15:09:32.219Z,0.20
2023-03-06T15:12:03.013Z,0.10
2023-03-06T15:14:34.049Z,0.10
2023-03-06T15:17:33.254Z,0.10
2023-03-06T15:20:06.627Z,0.10
2023-03-06T15:22:37.882Z,0.10
2023-03-06T15:25:22.658Z,0.10
2023-03-06T15:27:52.722Z,0.10
2023-03-06T15:30:27.727Z,0.20
2023-03-06T15:33:23.620Z,0.20
2023-03-06T15:35:57.827Z,0.30
2023-03-06T15:38:32.987Z,0.20
2023-03-06T15:41:02.611Z,0.30
2023-03-06T15:43:34.967Z,0.30
2023-03-06T15:46:05.636Z,0.20
2023-03-06T15:48:35.449Z,0.20
2023-03-06T15:51:05.886Z,0.10
2023-03-06T15:53:34.036Z,0.10
2023-03-06T15:56:03.337Z,0.10
2023-03-06T15:58:34.280Z,0.20
2023-03-06T16:01:03.800Z,0.10
2023-03-06T16:03:32.074Z,0.00
2023-03-06T16:06:00.300Z,0.10
2023-03-06T16:08:29.941Z,0.20
2023-03-06T16:10:58.056Z,0.10
2023-03-06T16:13:28.735Z,0.10
2023-03-06T16:15:57.567Z,0.10
2023-03-06T16:18:25.811Z,0.20
2023-03-06T16:20:53.996Z,0.20
2023-03-06T16:23:22.138Z,0.20
2023-03-06T16:25:51.885Z,0.20
2023-03-06T16:28:20.019Z,0.20
2023-03-06T16:30:48.207Z,0.20
2023-03-06T16:33:16.491Z,0.30
2023-03-06T16:35:46.682Z,0.30
2023-03-06T16:38:15.721Z,0.20
2023-03-06T16:40:44.102Z,0.10
2023-03-06T16:43:16.085Z,0.10
2023-03-06T16:45:45.047Z,0.10
2023-03-06T16:48:17.201Z,0.20
2023-03-06T16:50:45.445Z,0.20
2023-03-06T16:53:13.637Z,0.10
2023-03-06T16:55:41.785Z,0.10
2023-03-06T16:58:10.017Z,0.10
2023-03-06T17:00:39.713Z,0.10
2023-03-06T17:03:07.926Z,0.20
2023-03-06T17:05:38.024Z,0.20
2023-03-06T17:08:06.514Z,0.20
2023-03-06T17:10:34.663Z,0.20
2023-03-06T17:13:02.910Z,0.20
2023-03-06T17:15:31.159Z,0.20
2023-03-06T17:18:01.976Z,0.20
2023-03-06T17:20:30.132Z,0.10
2023-03-06T17:22:58.357Z,0.20
2023-03-06T17:25:26.582Z,0.20
2023-03-06T17:27:54.757Z,0.20
2023-03-06T17:30:23.095Z,0.10
2023-03-06T17:32:51.248Z,0.10
2023-03-06T17:35:20.836Z,0.10
2023-03-06T17:37:49.693Z,0.20
2023-03-06T17:40:18.013Z,0.10
2023-03-06T17:42:46.280Z,0.10
2023-03-06T17:45:14.545Z,0.20
2023-03-06T17:47:42.730Z,0.20
2023-03-06T17:50:12.333Z,0.20
2023-03-06T17:52:41.873Z,0.10
2023-03-06T17:55:10.764Z,0.10
2023-03-06T17:57:38.971Z,0.20
2023-03-06T18:00:08.737Z,0.20
2023-03-06T18:02:37.223Z,0.20
2023-03-06T18:05:05.964Z,0.20
2023-03-06T18:07:34.189Z,0.20
2023-03-06T18:10:03.774Z,0.20
2023-03-06T18:12:31.967Z,0.20
2023-03-06T18:15:00.157Z,0.20
2023-03-06T18:17:28.307Z,0.20
2023-03-06T18:19:56.986Z,0.20
2023-03-06T18:22:25.132Z,0.20
2023-03-06T18:24:53.452Z,0.20
2023-03-06T18:27:23.073Z,0.20
2023-03-06T18:29:52.280Z,0.20
2023-03-06T18:32:20.494Z,0.20
2023-03-06T18:34:50.607Z,0.20
2023-03-06T18:37:19.177Z,0.20
2023-03-06T18:39:47.469Z,0.20
2023-03-06T18:42:15.619Z,0.20
2023-03-06T18:44:47.756Z,0.20
2023-03-06T18:47:16.461Z,0.20
2023-03-06T18:49:46.143Z,0.20
2023-03-06T18:52:14.559Z,0.20
2023-03-06T18:54:42.866Z,0.20
2023-03-06T18:57:12.315Z,0.20
2023-03-06T18:59:40.448Z,0.20
2023-03-06T19:02:11.842Z,0.20
2023-03-06T19:04:40.001Z,0.20
2023-03-06T19:07:08.141Z,0.10
2023-03-06T19:09:36.309Z,0.10
2023-03-06T19:12:04.670Z,0.20
2023-03-06T19:14:32.820Z,0.10
2023-03-06T19:17:01.130Z,0.10
2023-03-06T19:19:30.672Z,0.10
2023-03-06T19:21:59.652Z,0.10
2023-03-06T19:24:28.040Z,0.70
2023-03-06T19:26:56.162Z,0.10
2023-03-06T19:29:24.303Z,0.10
2023-03-06T19:31:52.632Z,0.10
2023-03-06T19:34:20.933Z,0.10
2023-03-06T19:36:51.229Z,0.20
2023-03-06T19:39:19.631Z,0.10
2023-03-06T19:41:48.722Z,0.10
2023-03-06T19:44:17.358Z,0.10
2023-03-06T19:46:45.532Z,0.20
2023-03-06T19:49:18.041Z,0.10
2023-03-06T19:51:46.273Z,0.00
2023-03-06T19:54:16.130Z,0.10
2023-03-06T19:56:44.396Z,0.00
2023-03-06T19:59:15.070Z,0.00
2023-03-06T20:01:43.292Z,0.00
2023-03-06T20:04:11.699Z,0.00
2023-03-06T20:06:39.988Z,0.00
2023-03-06T20:09:09.969Z,0.00
2023-03-06T20:11:39.793Z,0.00
2023-03-06T20:14:08.912Z,0.00
2023-03-06T20:16:37.308Z,-0.10
2023-03-06T20:19:06.482Z,0.00
2023-03-06T20:21:37.610Z,0.00
2023-03-06T20:24:06.958Z,0.00
2023-03-06T20:26:38.069Z,0.00
2023-03-06T20:29:07.648Z,0.00
2023-03-06T20:31:36.059Z,0.00
2023-03-06T20:34:05.343Z,0.00
2023-03-06T20:36:36.058Z,0.10
2023-03-06T20:39:06.071Z,0.00
2023-03-06T20:41:34.237Z,0.00
2023-03-06T20:44:04.428Z,0.00
2023-03-06T20:46:34.042Z,0.00
2023-03-06T20:49:02.536Z,0.00
2023-03-06T20:51:32.874Z,0.00
2023-03-06T20:54:03.046Z,0.00
2023-03-06T20:56:33.795Z,0.00
2023-03-06T20:59:02.543Z,0.00
2023-03-06T21:01:33.467Z,0.00
2023-03-06T21:04:02.536Z,0.00
2023-03-06T21:06:31.445Z,-0.10
2023-03-06T21:09:00.999Z,-0.40
2023-03-06T21:11:29.643Z,-0.10
2023-03-06T21:13:58.392Z,0.00
2023-03-06T21:16:27.780Z,-0.10
2023-03-06T21:19:01.646Z,0.00
2023-03-06T21:21:31.747Z,0.00
2023-03-06T21:24:00.124Z,-0.10
2023-03-06T21:26:30.804Z,0.00
2023-03-06T21:28:59.505Z,0.00
2023-03-06T21:31:28.413Z,0.00
2023-03-06T21:33:58.997Z,-0.10
2023-03-06T21:36:27.526Z,-0.10
2023-03-06T21:38:56.268Z,-0.90
2023-03-06T21:41:26.171Z,-0.10
2023-03-06T21:43:58.402Z,-0.10
2023-03-06T21:46:27.929Z,-0.10
2023-03-06T21:48:58.308Z,-0.10
2023-03-06T21:51:27.340Z,-0.10
2023-03-06T21:53:56.403Z,-0.10
2023-03-06T21:56:28.390Z,-0.20
2023-03-06T21:58:56.778Z,-0.30
2023-03-06T22:01:26.300Z,-0.30
2023-03-06T22:03:55.143Z,-0.30
2023-03-06T22:06:26.688Z,-0.40
2023-03-06T22:08:56.964Z,0.40
2023-03-06T22:11:26.703Z,-0.50
2023-03-06T22:13:54.932Z,-0.50
2023-03-06T22:16:23.237Z,-0.60
2023-03-06T22:18:52.504Z,-0.70
2023-03-06T22:21:22.247Z,-0.70
2023-03-06T22:23:52.821Z,-0.80
2023-03-06T22:26:21.643Z,-0.70
2023-03-06T22:28:49.914Z,-0.80
2023-03-06T22:31:20.207Z,-0.80
2023-03-06T22:33:51.215Z,-0.80
2023-03-06T22:36:20.068Z,-0.80
2023-03-06T22:38:49.743Z,-0.90
2023-03-06T22:41:20.129Z,-0.80
2023-03-06T22:43:48.552Z,-0.90
2023-03-06T22:46:19.021Z,-0.90
2023-03-06T22:48:47.385Z,-0.80
2023-03-06T22:51:18.175Z,-0.80
2023-03-06T22:53:47.029Z,-0.80
2023-03-06T22:56:18.649Z,-0.80
2023-03-06T22:58:47.112Z,-0.50
2023-03-06T23:01:17.126Z,-0.80
2023-03-06T23:03:47.127Z,-0.80
2023-03-06T23:06:17.930Z,-0.80
2023-03-06T23:08:50.436Z,-0.80
2023-03-06T23:11:21.037Z,-0.80
2023-03-06T23:13:49.194Z,-0.80
2023-03-06T23:16:17.868Z,-0.80
2023-03-06T23:18:46.003Z,-0.80
2023-03-06T23:21:15.966Z,-0.70
2023-03-06T23:23:47.854Z,-0.70
2023-03-06T23:26:16.738Z,-0.80
2023-03-06T23:28:46.583Z,-0.80
2023-03-06T23:31:17.183Z,-0.80
2023-03-06T23:33:45.399Z,-0.80
2023-03-06T23:36:15.238Z,-0.70
2023-03-06T23:38:43.580Z,-0.70
2023-03-06T23:41:16.309Z,-0.70
2023-03-06T23:43:46.560Z,-0.80
2023-03-06T23:46:15.119Z,-0.80
2023-03-06T23:48:44.266Z,-0.70
2023-03-06T23:51:15.478Z,-0.80
2023-03-06T23:53:43.756Z,-0.90
2023-03-06T23:56:12.924Z,-0.90
2023-03-06T23:58:41.846Z,-0.90
